Airfield :
LOGIN :

Register | Disclaimer

   EN    FR    IT 

 










Legend :    VFR   Marginal VFR   IFR   Intensive IFR   Very Intensive IFR
Visi :
Ceiling :
>= 8 km
>= 3000ft
5 to 8 km
1000 to 3000 ft
1500m to 5 km
500 to 1000 ft
800 to 1500m
200 to 500 ft
< 800m
< 200 ft
Symbols :   Thunderstorms  Fog  Heavy snow  Heavy precipitations  Wind > 20 kt
SIGMETs :     Misc.  Thunderstorms  Icing  Turbulence  Mountain Waves  Volcanic Ashes






- Airport Elevation : 197 ft
- IATA code : XOG


LFMO - Orange

CURRENT METAR :
  • 150630Z AUTO 16003KT 110V280 3300 +RA BR FEW016/// BKN024/// BKN031/// ///TCU 16/15 Q1009 TEMPO VRB25G45KT 1000 TSRA BKN005 BKN020CB

EXPIRED METARs :
  • 150600Z AUTO 12012KT 9999 BKN020/// BKN027/// OVC084/// ///CB 16/14 Q1009 TEMPO VRB25G45KT 1000 TSRA BKN005 BKN020CB
  • 150530Z AUTO 11008KT 080V140 9999 -RA BKN008/// BKN054/// BKN068/// ///CB 15/15 Q1008 TEMPO VRB25G45KT 1000 TSRA
  • 150500Z AUTO 14009KT 6000 RA VCTS BKN010/// BKN019/// BKN026/// ///CB 15/14 Q1009 TEMPO VRB25G45KT 1000 TSRA
  • 150430Z AUTO 14012KT 7000 TSRA SCT020/// BKN031/// BKN043/// ///CB 16/15 Q1008 TEMPO VRB25G45KT 1000 TSRA BKN005 BKN020CB
  • 150400Z AUTO 16012G22KT 140V210 4300 +TSRA BR FEW012/// BKN017/// BKN027/// ///CB 18/16 Q1008 TEMPO VRB25G45KT 1000 TSRA BKN005 BKN020CB

TAF TAF LFMO
Valid from the 15 at 03:00 until the 16 at 03:00 UTC


150200Z 1503/1603 15015G25KT 9999 BKN035
TEMPO 1503/1509 VRB25G45KT 1000 TSRA BKN005 BKN020CB
BECMG 1509/1510 30008KT
TEMPO 1512/1515 4000 SHRA BKN020TCU
BECMG 1600/1602 VRB02KT 0600 FG



MET'MAP, your aeronautical weather chart ! - Copyright ORBIFLY December 2007 - Disclaimer

ORBIFLY MET'MAP TEAM :

Programming & Development : Alexandra Zaïnal
Concept & Development : Baudouin d'Aumeries
Co-Development & Prog : Marc-Olivier Méhu
Technical & hardware support : Manuel Goepfert

Contact : metmap@orbifly.com




SOURCES & CREDITS :

   NOAA